sensor_id;sensor_type;location;lat;lon;timestamp;P1;durP1;ratioP1;P2;durP2;ratioP2
42598;SDS011;28225;42.714;23.860;2023-11-19T00:00:13;1.90;;;1.80;;
42598;SDS011;28225;42.714;23.860;2023-11-19T00:00:29;2.33;;;1.80;;
42598;SDS011;28225;42.714;23.860;2023-11-19T00:00:44;3.45;;;2.08;;
42598;SDS011;28225;42.714;23.860;2023-11-19T00:01:00;3.00;;;2.33;;
42598;SDS011;28225;42.714;23.860;2023-11-19T00:01:15;2.90;;;2.67;;
42598;SDS011;28225;42.714;23.860;2023-11-19T00:01:31;3.00;;;2.80;;
42598;SDS011;28225;42.714;23.860;2023-11-19T00:01:47;3.20;;;2.90;;
42598;SDS011;28225;42.714;23.860;2023-11-19T00:02:03;2.78;;;2.58;;
42598;SDS011;28225;42.714;23.860;2023-11-19T00:02:18;2.47;;;2.27;;
42598;SDS011;28225;42.714;23.860;2023-11-19T00:02:34;2.55;;;2.35;;
42598;SDS011;28225;42.714;23.860;2023-11-19T00:02:49;3.10;;;2.90;;
42598;SDS011;28225;42.714;23.860;2023-11-19T00:03:05;3.15;;;2.92;;
42598;SDS011;28225;42.714;23.860;2023-11-19T00:03:21;2.30;;;2.20;;
42598;SDS011;28225;42.714;23.860;2023-11-19T00:03:36;2.33;;;2.23;;
42598;SDS011;28225;42.714;23.860;2023-11-19T00:03:51;2.35;;;2.25;;
42598;SDS011;28225;42.714;23.860;2023-11-19T00:04:08;2.45;;;2.35;;
42598;SDS011;28225;42.714;23.860;2023-11-19T00:04:23;2.88;;;2.65;;
42598;SDS011;28225;42.714;23.860;2023-11-19T00:04:39;3.53;;;2.90;;
42598;SDS011;28225;42.714;23.860;2023-11-19T00:04:54;3.33;;;3.05;;
42598;SDS011;28225;42.714;23.860;2023-11-19T00:05:10;3.53;;;3.23;;
42598;SDS011;28225;42.714;23.860;2023-11-19T00:05:28;3.15;;;2.95;;
42598;SDS011;28225;42.714;23.860;2023-11-19T00:05:44;2.85;;;2.65;;
42598;SDS011;28225;42.714;23.860;2023-11-19T00:06:00;2.80;;;2.60;;
42598;SDS011;28225;42.714;23.860;2023-11-19T00:06:16;3.17;;;2.88;;
42598;SDS011;28225;42.714;23.860;2023-11-19T00:06:32;3.85;;;3.33;;
42598;SDS011;28225;42.714;23.860;2023-11-19T00:06:47;3.60;;;3.30;;
42598;SDS011;28225;42.714;23.860;2023-11-19T00:07:02;3.38;;;3.17;;
42598;SDS011;28225;42.714;23.860;2023-11-19T00:07:20;3.35;;;3.15;;
42598;SDS011;28225;42.714;23.860;2023-11-19T00:07:35;3.70;;;3.40;;
42598;SDS011;28225;42.714;23.860;2023-11-19T00:07:51;3.27;;;3.07;;
42598;SDS011;28225;42.714;23.860;2023-11-19T00:08:07;2.90;;;2.78;;
42598;SDS011;28225;42.714;23.860;2023-11-19T00:08:23;2.90;;;2.70;;
42598;SDS011;28225;42.714;23.860;2023-11-19T00:08:39;3.20;;;3.00;;
42598;SDS011;28225;42.714;23.860;2023-11-19T00:08:55;3.53;;;3.27;;
42598;SDS011;28225;42.714;23.860;2023-11-19T00:09:10;3.38;;;3.08;;
42598;SDS011;28225;42.714;23.860;2023-11-19T00:09:26;3.10;;;2.90;;
42598;SDS011;28225;42.714;23.860;2023-11-19T00:09:42;3.23;;;3.03;;
42598;SDS011;28225;42.714;23.860;2023-11-19T00:09:58;3.30;;;3.10;;
42598;SDS011;28225;42.714;23.860;2023-11-19T00:10:15;2.88;;;2.72;;
42598;SDS011;28225;42.714;23.860;2023-11-19T00:10:33;2.90;;;2.70;;
42598;SDS011;28225;42.714;23.860;2023-11-19T00:10:48;3.20;;;3.00;;
42598;SDS011;28225;42.714;23.860;2023-11-19T00:11:05;2.95;;;2.75;;
42598;SDS011;28225;42.714;23.860;2023-11-19T00:11:21;2.95;;;2.75;;
42598;SDS011;28225;42.714;23.860;2023-11-19T00:11:36;3.22;;;3.03;;
42598;SDS011;28225;42.714;23.860;2023-11-19T00:11:52;3.00;;;2.80;;
42598;SDS011;28225;42.714;23.860;2023-11-19T00:12:08;3.27;;;3.07;;
42598;SDS011;28225;42.714;23.860;2023-11-19T00:12:23;3.30;;;3.10;;
42598;SDS011;28225;42.714;23.860;2023-11-19T00:12:43;3.13;;;2.90;;
42598;SDS011;28225;42.714;23.860;2023-11-19T00:12:59;3.00;;;2.78;;
42598;SDS011;28225;42.714;23.860;2023-11-19T00:13:15;2.97;;;2.77;;
42598;SDS011;28225;42.714;23.860;2023-11-19T00:13:31;2.78;;;2.65;;
42598;SDS011;28225;42.714;23.860;2023-11-19T00:13:46;2.72;;;2.63;;
42598;SDS011;28225;42.714;23.860;2023-11-19T00:14:02;2.73;;;2.63;;
42598;SDS011;28225;42.714;23.860;2023-11-19T00:14:17;2.83;;;2.63;;
42598;SDS011;28225;42.714;23.860;2023-11-19T00:14:33;2.93;;;2.73;;
42598;SDS011;28225;42.714;23.860;2023-11-19T00:14:49;3.20;;;2.90;;
42598;SDS011;28225;42.714;23.860;2023-11-19T00:15:05;2.95;;;2.72;;
42598;SDS011;28225;42.714;23.860;2023-11-19T00:15:23;2.70;;;2.50;;
42598;SDS011;28225;42.714;23.860;2023-11-19T00:15:40;2.85;;;2.65;;
42598;SDS011;28225;42.714;23.860;2023-11-19T00:15:55;3.13;;;2.90;;
42598;SDS011;28225;42.714;23.860;2023-11-19T00:16:11;6.43;;;2.80;;
42598;SDS011;28225;42.714;23.860;2023-11-19T00:16:27;5.70;;;2.60;;
42598;SDS011;28225;42.714;23.860;2023-11-19T00:16:43;2.70;;;2.58;;
42598;SDS011;28225;42.714;23.860;2023-11-19T00:16:58;2.75;;;2.65;;
42598;SDS011;28225;42.714;23.860;2023-11-19T00:17:14;3.13;;;2.93;;
42598;SDS011;28225;42.714;23.860;2023-11-19T00:17:29;3.67;;;3.47;;
42598;SDS011;28225;42.714;23.860;2023-11-19T00:17:46;4.60;;;4.30;;
42598;SDS011;28225;42.714;23.860;2023-11-19T00:18:02;4.60;;;4.30;;
42598;SDS011;28225;42.714;23.860;2023-11-19T00:18:19;4.25;;;3.95;;
42598;SDS011;28225;42.714;23.860;2023-11-19T00:18:35;3.67;;;3.45;;
42598;SDS011;28225;42.714;23.860;2023-11-19T00:18:51;3.63;;;3.43;;
42598;SDS011;28225;42.714;23.860;2023-11-19T00:19:07;3.43;;;3.23;;
42598;SDS011;28225;42.714;23.860;2023-11-19T00:19:23;3.30;;;3.10;;
42598;SDS011;28225;42.714;23.860;2023-11-19T00:19:39;5.70;;;5.40;;
42598;SDS011;28225;42.714;23.860;2023-11-19T00:19:54;5.88;;;5.57;;
42598;SDS011;28225;42.714;23.860;2023-11-19T00:20:10;3.53;;;3.33;;
42598;SDS011;28225;42.714;23.860;2023-11-19T00:20:29;5.45;;;5.15;;
42598;SDS011;28225;42.714;23.860;2023-11-19T00:20:44;7.07;;;6.68;;
42598;SDS011;28225;42.714;23.860;2023-11-19T00:21:00;6.30;;;6.00;;
42598;SDS011;28225;42.714;23.860;2023-11-19T00:21:17;3.80;;;3.63;;
42598;SDS011;28225;42.714;23.860;2023-11-19T00:21:32;2.85;;;2.72;;
42598;SDS011;28225;42.714;23.860;2023-11-19T00:21:48;3.40;;;3.20;;
42598;SDS011;28225;42.714;23.860;2023-11-19T00:22:03;3.42;;;3.22;;
42598;SDS011;28225;42.714;23.860;2023-11-19T00:22:19;3.57;;;3.37;;
42598;SDS011;28225;42.714;23.860;2023-11-19T00:22:36;3.50;;;3.30;;
42598;SDS011;28225;42.714;23.860;2023-11-19T00:22:52;3.60;;;3.40;;
42598;SDS011;28225;42.714;23.860;2023-11-19T00:23:07;3.70;;;3.42;;
42598;SDS011;28225;42.714;23.860;2023-11-19T00:23:22;3.37;;;3.17;;
42598;SDS011;28225;42.714;23.860;2023-11-19T00:23:38;3.40;;;3.20;;
42598;SDS011;28225;42.714;23.860;2023-11-19T00:23:53;3.38;;;3.17;;
42598;SDS011;28225;42.714;23.860;2023-11-19T00:24:09;2.90;;;2.70;;
42598;SDS011;28225;42.714;23.860;2023-11-19T00:24:26;2.40;;;2.30;;
42598;SDS011;28225;42.714;23.860;2023-11-19T00:24:41;2.92;;;2.72;;
42598;SDS011;28225;42.714;23.860;2023-11-19T00:24:57;3.03;;;2.83;;
42598;SDS011;28225;42.714;23.860;2023-11-19T00:25:12;2.85;;;2.70;;
42598;SDS011;28225;42.714;23.860;2023-11-19T00:25:28;2.90;;;2.70;;
42598;SDS011;28225;42.714;23.860;2023-11-19T00:25:43;3.20;;;2.90;;
42598;SDS011;28225;42.714;23.860;2023-11-19T00:25:59;2.83;;;2.72;;
42598;SDS011;28225;42.714;23.860;2023-11-19T00:26:14;2.70;;;2.60;;
42598;SDS011;28225;42.714;23.860;2023-11-19T00:26:30;2.93;;;2.83;;
42598;SDS011;28225;42.714;23.860;2023-11-19T00:26:45;3.45;;;3.25;;
42598;SDS011;28225;42.714;23.860;2023-11-19T00:27:01;3.80;;;3.60;;
42598;SDS011;28225;42.714;23.860;2023-11-19T00:27:17;3.60;;;3.40;;
42598;SDS011;28225;42.714;23.860;2023-11-19T00:27:33;3.00;;;2.80;;
42598;SDS011;28225;42.714;23.860;2023-11-19T00:27:48;3.05;;;2.85;;
42598;SDS011;28225;42.714;23.860;2023-11-19T00:28:05;3.33;;;3.15;;
42598;SDS011;28225;42.714;23.860;2023-11-19T00:28:21;3.27;;;3.10;;
42598;SDS011;28225;42.714;23.860;2023-11-19T00:28:36;3.42;;;3.22;;
42598;SDS011;28225;42.714;23.860;2023-11-19T00:28:53;3.28;;;3.08;;
42598;SDS011;28225;42.714;23.860;2023-11-19T00:29:11;3.30;;;3.17;;
42598;SDS011;28225;42.714;23.860;2023-11-19T00:29:28;3.55;;;3.35;;
42598;SDS011;28225;42.714;23.860;2023-11-19T00:29:43;3.00;;;2.90;;
42598;SDS011;28225;42.714;23.860;2023-11-19T00:30:01;2.67;;;2.58;;
42598;SDS011;28225;42.714;23.860;2023-11-19T00:30:17;2.60;;;2.40;;
42598;SDS011;28225;42.714;23.860;2023-11-19T00:30:32;2.72;;;2.53;;
42598;SDS011;28225;42.714;23.860;2023-11-19T00:30:48;2.93;;;2.73;;
42598;SDS011;28225;42.714;23.860;2023-11-19T00:31:04;3.03;;;2.83;;
42598;SDS011;28225;42.714;23.860;2023-11-19T00:31:19;3.20;;;3.00;;
42598;SDS011;28225;42.714;23.860;2023-11-19T00:31:35;3.30;;;3.10;;
42598;SDS011;28225;42.714;23.860;2023-11-19T00:31:51;3.23;;;3.03;;
42598;SDS011;28225;42.714;23.860;2023-11-19T00:32:07;3.13;;;2.92;;
42598;SDS011;28225;42.714;23.860;2023-11-19T00:32:22;3.13;;;2.92;;
42598;SDS011;28225;42.714;23.860;2023-11-19T00:32:38;3.08;;;2.80;;
42598;SDS011;28225;42.714;23.860;2023-11-19T00:32:54;3.40;;;3.10;;
42598;SDS011;28225;42.714;23.860;2023-11-19T00:33:10;3.10;;;2.90;;
42598;SDS011;28225;42.714;23.860;2023-11-19T00:33:25;3.30;;;3.10;;
42598;SDS011;28225;42.714;23.860;2023-11-19T00:33:40;3.33;;;3.13;;
42598;SDS011;28225;42.714;23.860;2023-11-19T00:33:56;2.87;;;2.67;;
42598;SDS011;28225;42.714;23.860;2023-11-19T00:34:11;3.20;;;3.00;;
42598;SDS011;28225;42.714;23.860;2023-11-19T00:34:27;3.47;;;3.27;;
42598;SDS011;28225;42.714;23.860;2023-11-19T00:34:45;2.78;;;2.67;;
42598;SDS011;28225;42.714;23.860;2023-11-19T00:35:02;2.22;;;2.13;;
42598;SDS011;28225;42.714;23.860;2023-11-19T00:35:18;6.13;;;5.78;;
42598;SDS011;28225;42.714;23.860;2023-11-19T00:35:34;7.17;;;6.77;;
42598;SDS011;28225;42.714;23.860;2023-11-19T00:35:49;3.63;;;3.42;;
42598;SDS011;28225;42.714;23.860;2023-11-19T00:36:05;3.75;;;3.55;;
42598;SDS011;28225;42.714;23.860;2023-11-19T00:36:21;3.88;;;3.67;;
42598;SDS011;28225;42.714;23.860;2023-11-19T00:36:39;3.45;;;3.20;;
42598;SDS011;28225;42.714;23.860;2023-11-19T00:36:54;3.08;;;2.80;;
42598;SDS011;28225;42.714;23.860;2023-11-19T00:37:10;2.58;;;2.38;;
42598;SDS011;28225;42.714;23.860;2023-11-19T00:37:26;2.35;;;2.25;;
42598;SDS011;28225;42.714;23.860;2023-11-19T00:37:41;2.73;;;2.63;;
42598;SDS011;28225;42.714;23.860;2023-11-19T00:38:03;3.20;;;3.00;;
42598;SDS011;28225;42.714;23.860;2023-11-19T00:38:19;3.30;;;3.10;;
42598;SDS011;28225;42.714;23.860;2023-11-19T00:38:34;3.67;;;3.38;;
42598;SDS011;28225;42.714;23.860;2023-11-19T00:38:50;4.23;;;3.93;;
42598;SDS011;28225;42.714;23.860;2023-11-19T00:39:07;3.55;;;3.35;;
42598;SDS011;28225;42.714;23.860;2023-11-19T00:39:23;2.90;;;2.70;;
42598;SDS011;28225;42.714;23.860;2023-11-19T00:39:38;2.92;;;2.65;;
42598;SDS011;28225;42.714;23.860;2023-11-19T00:39:54;3.00;;;2.47;;
42598;SDS011;28225;42.714;23.860;2023-11-19T00:40:11;2.97;;;2.67;;
42598;SDS011;28225;42.714;23.860;2023-11-19T00:40:26;3.25;;;3.05;;
42598;SDS011;28225;42.714;23.860;2023-11-19T00:40:42;3.20;;;3.00;;
42598;SDS011;28225;42.714;23.860;2023-11-19T00:40:59;2.85;;;2.65;;
42598;SDS011;28225;42.714;23.860;2023-11-19T00:41:14;2.65;;;2.45;;
42598;SDS011;28225;42.714;23.860;2023-11-19T00:41:31;3.25;;;2.53;;
42598;SDS011;28225;42.714;23.860;2023-11-19T00:41:47;3.20;;;2.50;;
42598;SDS011;28225;42.714;23.860;2023-11-19T00:42:02;2.72;;;2.53;;
42598;SDS011;28225;42.714;23.860;2023-11-19T00:42:18;3.00;;;2.70;;
42598;SDS011;28225;42.714;23.860;2023-11-19T00:42:33;3.57;;;3.27;;
42598;SDS011;28225;42.714;23.860;2023-11-19T00:42:49;3.78;;;3.42;;
42598;SDS011;28225;42.714;23.860;2023-11-19T00:43:04;3.20;;;2.90;;
42598;SDS011;28225;42.714;23.860;2023-11-19T00:43:20;3.25;;;3.05;;
42598;SDS011;28225;42.714;23.860;2023-11-19T00:43:37;3.40;;;3.17;;
42598;SDS011;28225;42.714;23.860;2023-11-19T00:43:53;3.47;;;3.17;;
42598;SDS011;28225;42.714;23.860;2023-11-19T00:44:08;3.03;;;2.73;;
42598;SDS011;28225;42.714;23.860;2023-11-19T00:44:24;2.92;;;2.67;;
42598;SDS011;28225;42.714;23.860;2023-11-19T00:44:40;3.90;;;3.30;;
42598;SDS011;28225;42.714;23.860;2023-11-19T00:44:56;3.88;;;3.22;;
42598;SDS011;28225;42.714;23.860;2023-11-19T00:45:13;3.33;;;3.13;;
42598;SDS011;28225;42.714;23.860;2023-11-19T00:45:29;4.30;;;4.00;;
42598;SDS011;28225;42.714;23.860;2023-11-19T00:45:44;4.13;;;3.83;;
42598;SDS011;28225;42.714;23.860;2023-11-19T00:46:00;3.80;;;3.60;;
42598;SDS011;28225;42.714;23.860;2023-11-19T00:46:15;3.58;;;3.38;;
42598;SDS011;28225;42.714;23.860;2023-11-19T00:46:31;3.27;;;3.07;;
42598;SDS011;28225;42.714;23.860;2023-11-19T00:46:47;2.92;;;2.83;;
42598;SDS011;28225;42.714;23.860;2023-11-19T00:47:03;2.80;;;2.70;;
42598;SDS011;28225;42.714;23.860;2023-11-19T00:47:20;3.20;;;3.00;;
42598;SDS011;28225;42.714;23.860;2023-11-19T00:47:35;3.17;;;3.08;;
42598;SDS011;28225;42.714;23.860;2023-11-19T00:47:51;3.20;;;3.10;;
42598;SDS011;28225;42.714;23.860;2023-11-19T00:48:06;3.30;;;3.10;;
42598;SDS011;28225;42.714;23.860;2023-11-19T00:48:22;3.27;;;3.07;;
42598;SDS011;28225;42.714;23.860;2023-11-19T00:48:37;3.20;;;3.00;;
42598;SDS011;28225;42.714;23.860;2023-11-19T00:48:53;3.10;;;2.90;;
42598;SDS011;28225;42.714;23.860;2023-11-19T00:49:08;3.08;;;2.97;;
42598;SDS011;28225;42.714;23.860;2023-11-19T00:49:26;3.40;;;3.10;;
42598;SDS011;28225;42.714;23.860;2023-11-19T00:49:42;4.60;;;3.23;;
42598;SDS011;28225;42.714;23.860;2023-11-19T00:49:57;3.80;;;3.40;;
42598;SDS011;28225;42.714;23.860;2023-11-19T00:50:13;3.40;;;3.20;;
42598;SDS011;28225;42.714;23.860;2023-11-19T00:50:28;3.10;;;2.90;;
42598;SDS011;28225;42.714;23.860;2023-11-19T00:50:46;3.30;;;3.10;;
42598;SDS011;28225;42.714;23.860;2023-11-19T00:51:01;3.60;;;3.40;;
42598;SDS011;28225;42.714;23.860;2023-11-19T00:51:17;3.45;;;3.25;;
42598;SDS011;28225;42.714;23.860;2023-11-19T00:51:33;2.93;;;2.73;;
42598;SDS011;28225;42.714;23.860;2023-11-19T00:51:48;2.58;;;2.38;;
42598;SDS011;28225;42.714;23.860;2023-11-19T00:52:04;2.50;;;2.30;;
42598;SDS011;28225;42.714;23.860;2023-11-19T00:52:21;2.70;;;2.50;;
42598;SDS011;28225;42.714;23.860;2023-11-19T00:52:37;2.20;;;2.10;;
42598;SDS011;28225;42.714;23.860;2023-11-19T00:52:52;2.65;;;2.03;;
42598;SDS011;28225;42.714;23.860;2023-11-19T00:53:08;2.90;;;2.10;;
42598;SDS011;28225;42.714;23.860;2023-11-19T00:53:23;2.30;;;2.10;;
42598;SDS011;28225;42.714;23.860;2023-11-19T00:53:39;2.60;;;2.40;;
42598;SDS011;28225;42.714;23.860;2023-11-19T00:53:54;2.95;;;2.85;;
42598;SDS011;28225;42.714;23.860;2023-11-19T00:54:10;2.83;;;2.72;;
42598;SDS011;28225;42.714;23.860;2023-11-19T00:54:25;2.80;;;2.60;;
42598;SDS011;28225;42.714;23.860;2023-11-19T00:54:41;3.10;;;2.90;;
42598;SDS011;28225;42.714;23.860;2023-11-19T00:54:56;2.97;;;2.87;;
42598;SDS011;28225;42.714;23.860;2023-11-19T00:55:12;3.13;;;2.92;;
42598;SDS011;28225;42.714;23.860;2023-11-19T00:55:27;3.20;;;3.00;;
42598;SDS011;28225;42.714;23.860;2023-11-19T00:55:43;3.07;;;2.83;;
42598;SDS011;28225;42.714;23.860;2023-11-19T00:55:58;3.30;;;2.83;;
42598;SDS011;28225;42.714;23.860;2023-11-19T00:56:14;3.17;;;2.80;;
42598;SDS011;28225;42.714;23.860;2023-11-19T00:56:29;2.97;;;2.78;;
42598;SDS011;28225;42.714;23.860;2023-11-19T00:56:45;2.90;;;2.70;;
42598;SDS011;28225;42.714;23.860;2023-11-19T00:57:00;2.75;;;2.50;;
42598;SDS011;28225;42.714;23.860;2023-11-19T00:57:16;3.30;;;3.03;;
42598;SDS011;28225;42.714;23.860;2023-11-19T00:57:32;5.07;;;4.77;;
42598;SDS011;28225;42.714;23.860;2023-11-19T00:57:47;5.78;;;5.47;;
42598;SDS011;28225;42.714;23.860;2023-11-19T00:58:03;4.83;;;4.57;;
42598;SDS011;28225;42.714;23.860;2023-11-19T00:58:18;4.50;;;4.30;;
42598;SDS011;28225;42.714;23.860;2023-11-19T00:58:34;5.17;;;4.87;;
42598;SDS011;28225;42.714;23.860;2023-11-19T00:58:49;5.22;;;4.90;;
42598;SDS011;28225;42.714;23.860;2023-11-19T00:59:05;5.00;;;4.60;;
42598;SDS011;28225;42.714;23.860;2023-11-19T00:59:21;8.07;;;5.20;;
42598;SDS011;28225;42.714;23.860;2023-11-19T00:59:36;8.17;;;5.60;;
42598;SDS011;28225;42.714;23.860;2023-11-19T00:59:52;5.60;;;5.20;;
42598;SDS011;28225;42.714;23.860;2023-11-19T01:00:08;5.60;;;5.20;;
42598;SDS011;28225;42.714;23.860;2023-11-19T01:00:33;4.85;;;4.45;;
42598;SDS011;28225;42.714;23.860;2023-11-19T01:00:49;4.43;;;4.13;;
42598;SDS011;28225;42.714;23.860;2023-11-19T01:01:05;3.20;;;3.00;;
42598;SDS011;28225;42.714;23.860;2023-11-19T01:01:20;2.90;;;2.63;;
42598;SDS011;28225;42.714;23.860;2023-11-19T01:01:36;3.90;;;3.10;;
42598;SDS011;28225;42.714;23.860;2023-11-19T01:01:52;3.40;;;3.10;;
42598;SDS011;28225;42.714;23.860;2023-11-19T01:02:07;3.00;;;2.80;;
42598;SDS011;28225;42.714;23.860;2023-11-19T01:02:23;3.13;;;2.83;;
42598;SDS011;28225;42.714;23.860;2023-11-19T01:02:38;3.13;;;2.83;;
42598;SDS011;28225;42.714;23.860;2023-11-19T01:02:54;3.30;;;3.10;;
42598;SDS011;28225;42.714;23.860;2023-11-19T01:03:09;4.25;;;4.05;;
42598;SDS011;28225;42.714;23.860;2023-11-19T01:03:25;4.50;;;4.22;;
42598;SDS011;28225;42.714;23.860;2023-11-19T01:03:40;3.77;;;3.47;;
42598;SDS011;28225;42.714;23.860;2023-11-19T01:03:56;2.58;;;2.38;;
42598;SDS011;28225;42.714;23.860;2023-11-19T01:04:14;2.33;;;2.13;;
42598;SDS011;28225;42.714;23.860;2023-11-19T01:04:34;2.05;;;1.95;;
42598;SDS011;28225;42.714;23.860;2023-11-19T01:04:50;2.00;;;1.90;;
42598;SDS011;28225;42.714;23.860;2023-11-19T01:05:07;2.10;;;2.00;;
42598;SDS011;28225;42.714;23.860;2023-11-19T01:05:23;2.10;;;2.00;;
42598;SDS011;28225;42.714;23.860;2023-11-19T01:05:39;2.50;;;2.40;;
42598;SDS011;28225;42.714;23.860;2023-11-19T01:05:54;3.07;;;2.87;;
42598;SDS011;28225;42.714;23.860;2023-11-19T01:06:10;5.07;;;3.67;;
42598;SDS011;28225;42.714;23.860;2023-11-19T01:06:31;5.70;;;3.87;;
42598;SDS011;28225;42.714;23.860;2023-11-19T01:06:47;5.93;;;4.13;;
42598;SDS011;28225;42.714;23.860;2023-11-19T01:07:03;5.73;;;4.90;;
42598;SDS011;28225;42.714;23.860;2023-11-19T01:07:19;6.15;;;5.45;;
42598;SDS011;28225;42.714;23.860;2023-11-19T01:07:36;7.10;;;6.47;;
42598;SDS011;28225;42.714;23.860;2023-11-19T01:07:52;7.00;;;6.38;;
42598;SDS011;28225;42.714;23.860;2023-11-19T01:08:09;7.00;;;5.97;;
42598;SDS011;28225;42.714;23.860;2023-11-19T01:08:24;6.47;;;5.68;;
42598;SDS011;28225;42.714;23.860;2023-11-19T01:08:39;5.60;;;5.10;;
42598;SDS011;28225;42.714;23.860;2023-11-19T01:08:55;6.18;;;5.18;;
42598;SDS011;28225;42.714;23.860;2023-11-19T01:09:14;5.28;;;4.78;;
42598;SDS011;28225;42.714;23.860;2023-11-19T01:09:32;5.30;;;4.80;;
42598;SDS011;28225;42.714;23.860;2023-11-19T01:09:51;6.43;;;5.05;;
42598;SDS011;28225;42.714;23.860;2023-11-19T01:10:06;5.53;;;5.03;;
42598;SDS011;28225;42.714;23.860;2023-11-19T01:10:23;5.28;;;4.85;;
42598;SDS011;28225;42.714;23.860;2023-11-19T01:10:39;5.20;;;4.80;;
42598;SDS011;28225;42.714;23.860;2023-11-19T01:10:54;4.87;;;4.47;;
42598;SDS011;28225;42.714;23.860;2023-11-19T01:11:19;4.72;;;4.32;;
42598;SDS011;28225;42.714;23.860;2023-11-19T01:11:36;4.75;;;4.35;;
42598;SDS011;28225;42.714;23.860;2023-11-19T01:11:51;5.13;;;4.72;;
42598;SDS011;28225;42.714;23.860;2023-11-19T01:12:07;5.18;;;4.78;;
42598;SDS011;28225;42.714;23.860;2023-11-19T01:12:23;4.63;;;4.22;;
42598;SDS011;28225;42.714;23.860;2023-11-19T01:12:39;4.07;;;3.78;;
42598;SDS011;28225;42.714;23.860;2023-11-19T01:12:54;4.33;;;4.03;;
42598;SDS011;28225;42.714;23.860;2023-11-19T01:13:10;4.17;;;3.87;;
42598;SDS011;28225;42.714;23.860;2023-11-19T01:13:25;3.95;;;3.65;;
42598;SDS011;28225;42.714;23.860;2023-11-19T01:13:40;3.77;;;3.47;;
42598;SDS011;28225;42.714;23.860;2023-11-19T01:13:56;3.30;;;3.10;;
42598;SDS011;28225;42.714;23.860;2023-11-19T01:14:11;3.30;;;3.10;;
42598;SDS011;28225;42.714;23.860;2023-11-19T01:14:27;3.20;;;3.00;;
42598;SDS011;28225;42.714;23.860;2023-11-19T01:14:43;3.10;;;2.90;;
42598;SDS011;28225;42.714;23.860;2023-11-19T01:14:58;3.30;;;3.10;;
42598;SDS011;28225;42.714;23.860;2023-11-19T01:15:14;3.28;;;3.00;;
42598;SDS011;28225;42.714;23.860;2023-11-19T01:15:29;3.20;;;2.90;;
42598;SDS011;28225;42.714;23.860;2023-11-19T01:15:45;3.40;;;3.10;;
42598;SDS011;28225;42.714;23.860;2023-11-19T01:16:00;3.60;;;3.30;;
42598;SDS011;28225;42.714;23.860;2023-11-19T01:16:17;3.70;;;3.40;;
42598;SDS011;28225;42.714;23.860;2023-11-19T01:16:33;3.53;;;3.22;;
42598;SDS011;28225;42.714;23.860;2023-11-19T01:16:49;3.80;;;3.40;;
42598;SDS011;28225;42.714;23.860;2023-11-19T01:17:04;3.87;;;3.57;;
42598;SDS011;28225;42.714;23.860;2023-11-19T01:17:20;3.88;;;3.58;;
42598;SDS011;28225;42.714;23.860;2023-11-19T01:17:38;4.07;;;3.67;;
42598;SDS011;28225;42.714;23.860;2023-11-19T01:17:54;4.10;;;3.63;;
42598;SDS011;28225;42.714;23.860;2023-11-19T01:18:09;4.00;;;3.70;;
42598;SDS011;28225;42.714;23.860;2023-11-19T01:18:25;3.88;;;3.58;;
42598;SDS011;28225;42.714;23.860;2023-11-19T01:18:41;3.40;;;3.17;;
42598;SDS011;28225;42.714;23.860;2023-11-19T01:18:56;3.67;;;3.40;;
42598;SDS011;28225;42.714;23.860;2023-11-19T01:19:12;4.30;;;4.00;;
42598;SDS011;28225;42.714;23.860;2023-11-19T01:19:27;4.15;;;3.85;;
42598;SDS011;28225;42.714;23.860;2023-11-19T01:19:43;4.00;;;3.60;;
42598;SDS011;28225;42.714;23.860;2023-11-19T01:19:59;4.30;;;3.80;;
42598;SDS011;28225;42.714;23.860;2023-11-19T01:20:14;4.80;;;4.40;;
42598;SDS011;28225;42.714;23.860;2023-11-19T01:20:30;5.30;;;4.85;;
42598;SDS011;28225;42.714;23.860;2023-11-19T01:20:45;5.60;;;5.10;;
42598;SDS011;28225;42.714;23.860;2023-11-19T01:21:01;5.63;;;5.13;;
42598;SDS011;28225;42.714;23.860;2023-11-19T01:21:16;5.20;;;4.72;;
42598;SDS011;28225;42.714;23.860;2023-11-19T01:21:31;4.30;;;4.00;;
42598;SDS011;28225;42.714;23.860;2023-11-19T01:21:47;4.63;;;4.22;;
42598;SDS011;28225;42.714;23.860;2023-11-19T01:22:02;4.77;;;4.37;;
42598;SDS011;28225;42.714;23.860;2023-11-19T01:22:18;4.47;;;4.18;;
42598;SDS011;28225;42.714;23.860;2023-11-19T01:22:34;4.03;;;3.73;;
42598;SDS011;28225;42.714;23.860;2023-11-19T01:22:49;3.97;;;3.57;;
42598;SDS011;28225;42.714;23.860;2023-11-19T01:23:05;4.60;;;4.20;;
42598;SDS011;28225;42.714;23.860;2023-11-19T01:23:21;4.25;;;3.95;;
42598;SDS011;28225;42.714;23.860;2023-11-19T01:23:36;3.77;;;3.47;;
42598;SDS011;28225;42.714;23.860;2023-11-19T01:23:52;3.70;;;3.40;;
42598;SDS011;28225;42.714;23.860;2023-11-19T01:24:07;3.33;;;3.03;;
42598;SDS011;28225;42.714;23.860;2023-11-19T01:24:24;3.03;;;2.83;;
42598;SDS011;28225;42.714;23.860;2023-11-19T01:24:43;3.50;;;3.30;;
42598;SDS011;28225;42.714;23.860;2023-11-19T01:24:59;3.40;;;3.20;;
42598;SDS011;28225;42.714;23.860;2023-11-19T01:25:15;3.38;;;3.17;;
42598;SDS011;28225;42.714;23.860;2023-11-19T01:25:30;3.53;;;3.33;;
42598;SDS011;28225;42.714;23.860;2023-11-19T01:25:46;3.47;;;3.28;;
42598;SDS011;28225;42.714;23.860;2023-11-19T01:26:03;3.33;;;3.13;;
42598;SDS011;28225;42.714;23.860;2023-11-19T01:26:20;3.20;;;3.00;;
42598;SDS011;28225;42.714;23.860;2023-11-19T01:26:35;3.30;;;3.10;;
42598;SDS011;28225;42.714;23.860;2023-11-19T01:26:51;3.30;;;3.10;;
42598;SDS011;28225;42.714;23.860;2023-11-19T01:27:06;3.17;;;2.97;;
42598;SDS011;28225;42.714;23.860;2023-11-19T01:27:22;3.08;;;2.88;;
42598;SDS011;28225;42.714;23.860;2023-11-19T01:27:37;2.53;;;2.43;;
42598;SDS011;28225;42.714;23.860;2023-11-19T01:27:53;2.53;;;2.40;;
42598;SDS011;28225;42.714;23.860;2023-11-19T01:28:09;2.70;;;2.50;;
42598;SDS011;28225;42.714;23.860;2023-11-19T01:28:24;2.90;;;2.57;;
42598;SDS011;28225;42.714;23.860;2023-11-19T01:28:40;3.10;;;2.90;;
42598;SDS011;28225;42.714;23.860;2023-11-19T01:28:58;3.70;;;3.40;;
42598;SDS011;28225;42.714;23.860;2023-11-19T01:29:16;4.07;;;3.78;;
42598;SDS011;28225;42.714;23.860;2023-11-19T01:29:32;3.88;;;3.58;;
42598;SDS011;28225;42.714;23.860;2023-11-19T01:29:47;3.67;;;3.42;;
42598;SDS011;28225;42.714;23.860;2023-11-19T01:30:02;3.50;;;3.20;;
42598;SDS011;28225;42.714;23.860;2023-11-19T01:30:20;2.72;;;2.53;;
42598;SDS011;28225;42.714;23.860;2023-11-19T01:30:36;2.65;;;2.28;;
42598;SDS011;28225;42.714;23.860;2023-11-19T01:30:51;2.50;;;2.30;;
42598;SDS011;28225;42.714;23.860;2023-11-19T01:31:07;2.70;;;2.50;;
42598;SDS011;28225;42.714;23.860;2023-11-19T01:31:23;3.55;;;2.63;;
42598;SDS011;28225;42.714;23.860;2023-11-19T01:31:39;3.33;;;2.70;;
42598;SDS011;28225;42.714;23.860;2023-11-19T01:31:58;2.88;;;2.67;;
42598;SDS011;28225;42.714;23.860;2023-11-19T01:32:13;2.87;;;2.67;;
42598;SDS011;28225;42.714;23.860;2023-11-19T01:32:29;2.90;;;2.70;;
42598;SDS011;28225;42.714;23.860;2023-11-19T01:32:44;2.83;;;2.63;;
42598;SDS011;28225;42.714;23.860;2023-11-19T01:33:00;3.00;;;2.60;;
42598;SDS011;28225;42.714;23.860;2023-11-19T01:33:15;2.93;;;2.63;;
42598;SDS011;28225;42.714;23.860;2023-11-19T01:33:31;2.90;;;2.70;;
42598;SDS011;28225;42.714;23.860;2023-11-19T01:33:46;2.90;;;2.70;;
42598;SDS011;28225;42.714;23.860;2023-11-19T01:34:02;2.40;;;2.30;;
42598;SDS011;28225;42.714;23.860;2023-11-19T01:34:17;2.42;;;2.30;;
42598;SDS011;28225;42.714;23.860;2023-11-19T01:34:32;2.77;;;2.57;;
42598;SDS011;28225;42.714;23.860;2023-11-19T01:34:48;3.10;;;2.90;;